FIN1AU EFHK-LGRP
Flight info
| Callsign | FIN1AU |
|---|---|
| Flight time | 3h 21m |
| Altitude | 34000 |
| Route | KOIVU DCT LARTI DCT NAVOT DCT LUTAL DCT BERIL/N0456F350 DCT SUWGI/N0450F340 DCT SUTIK DCT EVINA/N0444F350 DCT KELEL DCT VERIG DCT LOMOS DCT WAK DCT NIKTI DCT MES UN139 LURUS UL995 CODIC |
| Aircraft | A321/M-SDE3FGHIRWY/LB1 |
Departure
| Time | 2026-04-26 09:48 |
|---|---|
| Airport | Helsinki Vantaa Airport (EFHK) |
Arrival
| Time | 2026-04-26 13:09 |
|---|---|
| Airport | Rhodes International Airport "Diagoras" (LGRP) |
| Time | Latitude | Longitude | Altitude | Speed | Heading |
|---|---|---|---|---|---|
| 2026-04-26 09:11 | 60.31842 | 24.96463 | 188 ft | 0 kts | 137° |
| 2026-04-26 09:27 | 60.31851 | 24.96447 | 191 ft | 2 kts | 137° |
| 2026-04-26 09:27 | 60.31863 | 24.96429 | 191 ft | 2 kts | 160° |
| 2026-04-26 09:28 | 60.31878 | 24.96423 | 191 ft | 2 kts | 178° |
| 2026-04-26 09:28 | 60.31892 | 24.96426 | 191 ft | 2 kts | 198° |
| 2026-04-26 09:28 | 60.31906 | 24.96439 | 191 ft | 2 kts | 216° |
| 2026-04-26 09:28 | 60.31912 | 24.96450 | 191 ft | 1 kts | 227° |
| 2026-04-26 09:29 | 60.31915 | 24.96457 | 191 ft | 0 kts | 229° |
| 2026-04-26 09:31 | 60.31911 | 24.96449 | 191 ft | 4 kts | 229° |
| 2026-04-26 09:32 | 60.31881 | 24.96379 | 191 ft | 7 kts | 229° |
| 2026-04-26 09:32 | 60.31853 | 24.96291 | 191 ft | 8 kts | 255° |
| 2026-04-26 09:32 | 60.31877 | 24.96122 | 191 ft | 16 kts | 311° |
| 2026-04-26 09:32 | 60.31971 | 24.96056 | 191 ft | 15 kts | 37° |
| 2026-04-26 09:33 | 60.32038 | 24.96201 | 191 ft | 12 kts | 47° |
| 2026-04-26 09:33 | 60.32103 | 24.96345 | 191 ft | 16 kts | 47° |
| 2026-04-26 09:33 | 60.32177 | 24.96506 | 191 ft | 14 kts | 47° |
| 2026-04-26 09:33 | 60.32237 | 24.96641 | 191 ft | 13 kts | 48° |
| 2026-04-26 09:34 | 60.32299 | 24.96802 | 191 ft | 14 kts | 83° |
| 2026-04-26 09:34 | 60.32227 | 24.96930 | 191 ft | 15 kts | 153° |
| 2026-04-26 09:34 | 60.32129 | 24.97030 | 191 ft | 16 kts | 153° |
| 2026-04-26 09:34 | 60.32025 | 24.97137 | 191 ft | 17 kts | 153° |
| 2026-04-26 09:35 | 60.31915 | 24.97250 | 191 ft | 18 kts | 153° |
| 2026-04-26 09:35 | 60.31801 | 24.97368 | 191 ft | 18 kts | 153° |
| 2026-04-26 09:35 | 60.31685 | 24.97487 | 191 ft | 18 kts | 153° |
| 2026-04-26 09:35 | 60.31565 | 24.97610 | 191 ft | 19 kts | 153° |
| 2026-04-26 09:36 | 60.31467 | 24.97712 | 191 ft | 6 kts | 153° |
| 2026-04-26 09:36 | 60.31433 | 24.97747 | 191 ft | 1 kts | 152° |
| 2026-04-26 09:36 | 60.31399 | 24.97782 | 191 ft | 12 kts | 153° |
| 2026-04-26 09:36 | 60.31284 | 24.97900 | 191 ft | 20 kts | 153° |
| 2026-04-26 09:37 | 60.31156 | 24.98033 | 191 ft | 20 kts | 153° |
| 2026-04-26 09:37 | 60.31024 | 24.98165 | 191 ft | 20 kts | 156° |
| 2026-04-26 09:37 | 60.30891 | 24.98279 | 191 ft | 21 kts | 157° |
| 2026-04-26 09:37 | 60.30762 | 24.98391 | 191 ft | 18 kts | 157° |
| 2026-04-26 09:38 | 60.30664 | 24.98533 | 191 ft | 14 kts | 108° |
| 2026-04-26 09:38 | 60.30661 | 24.98587 | 191 ft | 0 kts | 85° |
| 2026-04-26 09:44 | 60.30661 | 24.98590 | 191 ft | 0 kts | 79° |
| 2026-04-26 09:45 | 60.30674 | 24.98662 | 191 ft | 11 kts | 62° |
| 2026-04-26 09:45 | 60.30712 | 24.98785 | 191 ft | 9 kts | 49° |
| 2026-04-26 09:46 | 60.30770 | 24.98765 | 191 ft | 8 kts | 332° |
| 2026-04-26 09:46 | 60.30775 | 24.98759 | 191 ft | 0 kts | 333° |
| 2026-04-26 09:47 | 60.30777 | 24.98758 | 191 ft | 2 kts | 333° |
| 2026-04-26 09:48 | 60.30952 | 24.98580 | 191 ft | 60 kts | 333° |
| 2026-04-26 09:48 | 60.31500 | 24.98017 | 191 ft | 117 kts | 333° |
| 2026-04-26 09:48 | 60.32363 | 24.97132 | 303 ft | 154 kts | 332° |
| 2026-04-26 09:48 | 60.33248 | 24.96176 | 1156 ft | 140 kts | 329° |
| 2026-04-26 09:49 | 60.33851 | 24.94741 | 1763 ft | 146 kts | 292° |
| 2026-04-26 09:49 | 60.34017 | 24.92647 | 2167 ft | 161 kts | 286° |
| 2026-04-26 09:49 | 60.34206 | 24.90300 | 2544 ft | 174 kts | 286° |
| 2026-04-26 09:49 | 60.34489 | 24.87895 | 2871 ft | 185 kts | 293° |
| 2026-04-26 09:50 | 60.34813 | 24.85260 | 3179 ft | 206 kts | 279° |
| 2026-04-26 09:50 | 60.34445 | 24.82237 | 3413 ft | 241 kts | 250° |
| 2026-04-26 09:50 | 60.33550 | 24.79237 | 3786 ft | 260 kts | 244° |
| 2026-04-26 09:50 | 60.32560 | 24.76102 | 4283 ft | 270 kts | 245° |
| 2026-04-26 09:51 | 60.31589 | 24.72865 | 4961 ft | 273 kts | 247° |
| 2026-04-26 09:51 | 60.30638 | 24.69521 | 5660 ft | 275 kts | 247° |
| 2026-04-26 09:51 | 60.29424 | 24.66484 | 6231 ft | 293 kts | 221° |
| 2026-04-26 09:51 | 60.27509 | 24.64888 | 6809 ft | 307 kts | 195° |
| 2026-04-26 09:52 | 60.25386 | 24.64162 | 7425 ft | 311 kts | 192° |
| 2026-04-26 09:52 | 60.21117 | 24.62800 | 8569 ft | 317 kts | 193° |
| 2026-04-26 09:52 | 60.18924 | 24.62016 | 9170 ft | 320 kts | 193° |
| 2026-04-26 09:53 | 60.16719 | 24.61191 | 9773 ft | 322 kts | 194° |
| 2026-04-26 09:53 | 60.14487 | 24.60337 | 10186 ft | 332 kts | 194° |
| 2026-04-26 09:53 | 60.12184 | 24.59446 | 10461 ft | 346 kts | 194° |
| 2026-04-26 09:53 | 60.09775 | 24.58514 | 10742 ft | 359 kts | 193° |
| 2026-04-26 09:54 | 60.07223 | 24.57903 | 11023 ft | 374 kts | 183° |
| 2026-04-26 09:54 | 60.04581 | 24.58267 | 11430 ft | 381 kts | 171° |
| 2026-04-26 09:54 | 60.01969 | 24.59277 | 12048 ft | 381 kts | 168° |
| 2026-04-26 09:54 | 59.99413 | 24.60388 | 12622 ft | 382 kts | 167° |
| 2026-04-26 09:55 | 59.96815 | 24.61510 | 13157 ft | 383 kts | 168° |
| 2026-04-26 09:55 | 59.94178 | 24.62614 | 13696 ft | 385 kts | 168° |
| 2026-04-26 09:55 | 59.91561 | 24.63680 | 14258 ft | 387 kts | 168° |
| 2026-04-26 09:55 | 59.88924 | 24.64744 | 14793 ft | 387 kts | 168° |
| 2026-04-26 09:56 | 59.86266 | 24.65714 | 15299 ft | 389 kts | 173° |
| 2026-04-26 09:56 | 59.83576 | 24.65847 | 15808 ft | 390 kts | 185° |
| 2026-04-26 09:56 | 59.80900 | 24.65006 | 16341 ft | 391 kts | 194° |
| 2026-04-26 09:56 | 59.78266 | 24.63749 | 16869 ft | 392 kts | 195° |
| 2026-04-26 09:57 | 59.75618 | 24.62423 | 17355 ft | 395 kts | 195° |
| 2026-04-26 09:57 | 59.72908 | 24.61091 | 17857 ft | 397 kts | 195° |
| 2026-04-26 09:57 | 59.70223 | 24.59807 | 18355 ft | 398 kts | 194° |
| 2026-04-26 09:57 | 59.67542 | 24.58545 | 18838 ft | 400 kts | 194° |
| 2026-04-26 09:58 | 59.64819 | 24.57209 | 19316 ft | 402 kts | 195° |
| 2026-04-26 09:58 | 59.62145 | 24.55814 | 19778 ft | 403 kts | 195° |
| 2026-04-26 09:58 | 59.59426 | 24.54382 | 20225 ft | 405 kts | 195° |
| 2026-04-26 09:58 | 59.56681 | 24.52942 | 20644 ft | 407 kts | 195° |
| 2026-04-26 09:59 | 59.53930 | 24.51508 | 21044 ft | 410 kts | 195° |
| 2026-04-26 09:59 | 59.51205 | 24.50094 | 21425 ft | 412 kts | 195° |
| 2026-04-26 09:59 | 59.48411 | 24.48648 | 21790 ft | 414 kts | 195° |
| 2026-04-26 09:59 | 59.45615 | 24.47206 | 22147 ft | 417 kts | 195° |
| 2026-04-26 10:00 | 59.42807 | 24.45760 | 22495 ft | 419 kts | 195° |
| 2026-04-26 10:00 | 59.39978 | 24.44306 | 22836 ft | 421 kts | 195° |
| 2026-04-26 10:00 | 59.37098 | 24.42829 | 23164 ft | 423 kts | 195° |
| 2026-04-26 10:00 | 59.34268 | 24.41446 | 23470 ft | 426 kts | 193° |
| 2026-04-26 10:01 | 59.31332 | 24.40327 | 23783 ft | 429 kts | 191° |
| 2026-04-26 10:01 | 59.28395 | 24.39274 | 24087 ft | 431 kts | 191° |
| 2026-04-26 10:01 | 59.25406 | 24.38201 | 24381 ft | 434 kts | 191° |
| 2026-04-26 10:01 | 59.22434 | 24.37134 | 24666 ft | 436 kts | 191° |
| 2026-04-26 10:02 | 59.19448 | 24.36065 | 24944 ft | 438 kts | 192° |
| 2026-04-26 10:02 | 59.16437 | 24.34989 | 25220 ft | 441 kts | 191° |
| 2026-04-26 10:02 | 59.13450 | 24.33923 | 25473 ft | 443 kts | 191° |
| 2026-04-26 10:02 | 59.10414 | 24.32842 | 25717 ft | 445 kts | 191° |
| 2026-04-26 10:03 | 59.07347 | 24.31752 | 25956 ft | 448 kts | 191° |
| 2026-04-26 10:03 | 59.04325 | 24.30681 | 26186 ft | 450 kts | 191° |
| 2026-04-26 10:03 | 59.01247 | 24.29591 | 26394 ft | 452 kts | 191° |
| 2026-04-26 10:03 | 58.98141 | 24.28494 | 26589 ft | 455 kts | 191° |
| 2026-04-26 10:04 | 58.95002 | 24.27387 | 26803 ft | 456 kts | 191° |
| 2026-04-26 10:04 | 58.91866 | 24.26283 | 27002 ft | 458 kts | 191° |
| 2026-04-26 10:04 | 58.88756 | 24.25190 | 27181 ft | 460 kts | 191° |
| 2026-04-26 10:04 | 58.85615 | 24.24088 | 27345 ft | 463 kts | 191° |
| 2026-04-26 10:05 | 58.82456 | 24.22982 | 27510 ft | 465 kts | 191° |
| 2026-04-26 10:05 | 58.79269 | 24.21867 | 27671 ft | 467 kts | 192° |
| 2026-04-26 10:05 | 58.76069 | 24.20751 | 27828 ft | 469 kts | 192° |
| 2026-04-26 10:05 | 58.72852 | 24.19631 | 27986 ft | 471 kts | 192° |
| 2026-04-26 10:06 | 58.69631 | 24.18511 | 28142 ft | 473 kts | 192° |
| 2026-04-26 10:06 | 58.66375 | 24.17382 | 28297 ft | 475 kts | 192° |
| 2026-04-26 10:06 | 58.63132 | 24.16258 | 28445 ft | 477 kts | 192° |
| 2026-04-26 10:06 | 58.59878 | 24.15134 | 28584 ft | 479 kts | 192° |
| 2026-04-26 10:07 | 58.56563 | 24.13991 | 28814 ft | 478 kts | 192° |
| 2026-04-26 10:07 | 58.53317 | 24.12874 | 29047 ft | 477 kts | 192° |
| 2026-04-26 10:07 | 58.50062 | 24.11756 | 29214 ft | 479 kts | 192° |
| 2026-04-26 10:07 | 58.46751 | 24.10620 | 29354 ft | 481 kts | 192° |
| 2026-04-26 10:08 | 58.43457 | 24.09492 | 29499 ft | 483 kts | 192° |
| 2026-04-26 10:08 | 58.40163 | 24.08366 | 29686 ft | 484 kts | 192° |
| 2026-04-26 10:08 | 58.36866 | 24.07242 | 29904 ft | 484 kts | 192° |
| 2026-04-26 10:08 | 58.33541 | 24.06110 | 30120 ft | 485 kts | 192° |
| 2026-04-26 10:09 | 58.30255 | 24.04993 | 30323 ft | 485 kts | 192° |
| 2026-04-26 10:09 | 58.26945 | 24.03870 | 30525 ft | 485 kts | 192° |
| 2026-04-26 10:09 | 58.23581 | 24.02731 | 30730 ft | 486 kts | 192° |
| 2026-04-26 10:09 | 58.20237 | 24.01602 | 30943 ft | 486 kts | 192° |
| 2026-04-26 10:10 | 58.16934 | 24.00489 | 31163 ft | 485 kts | 192° |
| 2026-04-26 10:10 | 58.13652 | 23.99386 | 31378 ft | 484 kts | 192° |
| 2026-04-26 10:10 | 58.10312 | 23.98263 | 31582 ft | 484 kts | 192° |
| 2026-04-26 10:10 | 58.07035 | 23.97163 | 31789 ft | 484 kts | 192° |
| 2026-04-26 10:11 | 58.03726 | 23.96055 | 32003 ft | 484 kts | 192° |
| 2026-04-26 10:11 | 58.00399 | 23.94943 | 32191 ft | 484 kts | 192° |
| 2026-04-26 10:11 | 57.97105 | 23.93845 | 32358 ft | 485 kts | 192° |
| 2026-04-26 10:11 | 57.93782 | 23.92740 | 32525 ft | 486 kts | 192° |
| 2026-04-26 10:12 | 57.90495 | 23.91648 | 32691 ft | 486 kts | 192° |
| 2026-04-26 10:12 | 57.87159 | 23.90543 | 32845 ft | 486 kts | 192° |
| 2026-04-26 10:12 | 57.83831 | 23.89444 | 32978 ft | 487 kts | 192° |
| 2026-04-26 10:12 | 57.80503 | 23.88346 | 33120 ft | 487 kts | 192° |
| 2026-04-26 10:13 | 57.77146 | 23.87240 | 33269 ft | 488 kts | 192° |
| 2026-04-26 10:13 | 57.73833 | 23.86151 | 33414 ft | 488 kts | 192° |
| 2026-04-26 10:13 | 57.70497 | 23.85057 | 33556 ft | 489 kts | 192° |
| 2026-04-26 10:13 | 57.67151 | 23.83961 | 33694 ft | 489 kts | 192° |
| 2026-04-26 10:14 | 57.63807 | 23.82868 | 33806 ft | 490 kts | 192° |
| 2026-04-26 10:14 | 57.60455 | 23.81774 | 33816 ft | 490 kts | 192° |
| 2026-04-26 10:14 | 57.53728 | 23.79584 | 33827 ft | 490 kts | 192° |
| 2026-04-26 10:15 | 57.47054 | 23.77421 | 33833 ft | 489 kts | 192° |
| 2026-04-26 10:15 | 57.40331 | 23.75249 | 33833 ft | 489 kts | 192° |
| 2026-04-26 10:16 | 57.33653 | 23.73100 | 33834 ft | 489 kts | 193° |
| 2026-04-26 10:16 | 57.26887 | 23.70930 | 33836 ft | 490 kts | 193° |
| 2026-04-26 10:17 | 57.20158 | 23.68780 | 33837 ft | 491 kts | 193° |
| 2026-04-26 10:17 | 57.13412 | 23.66633 | 33837 ft | 491 kts | 193° |
| 2026-04-26 10:18 | 57.06724 | 23.64511 | 33837 ft | 492 kts | 193° |
| 2026-04-26 10:18 | 56.99999 | 23.62387 | 33835 ft | 492 kts | 193° |
| 2026-04-26 10:19 | 56.93276 | 23.60272 | 33835 ft | 492 kts | 193° |
| 2026-04-26 10:19 | 56.86520 | 23.58153 | 33832 ft | 492 kts | 193° |
| 2026-04-26 10:20 | 56.79799 | 23.56052 | 33833 ft | 493 kts | 193° |
| 2026-04-26 10:20 | 56.73062 | 23.53955 | 33832 ft | 493 kts | 193° |
| 2026-04-26 10:21 | 56.66345 | 23.51872 | 33831 ft | 494 kts | 193° |
| 2026-04-26 10:21 | 56.59594 | 23.49782 | 33832 ft | 494 kts | 193° |
| 2026-04-26 10:22 | 56.52815 | 23.47692 | 33837 ft | 494 kts | 193° |
| 2026-04-26 10:22 | 56.46102 | 23.45632 | 33844 ft | 494 kts | 193° |
| 2026-04-26 10:23 | 56.39349 | 23.43568 | 33851 ft | 493 kts | 193° |
| 2026-04-26 10:23 | 56.32608 | 23.41643 | 33861 ft | 494 kts | 191° |
| 2026-04-26 10:24 | 56.25741 | 23.40013 | 33874 ft | 494 kts | 191° |
| 2026-04-26 10:24 | 56.18956 | 23.38412 | 33886 ft | 494 kts | 191° |
| 2026-04-26 10:25 | 56.12140 | 23.36786 | 33896 ft | 494 kts | 191° |
| 2026-04-26 10:25 | 56.05354 | 23.35163 | 33904 ft | 494 kts | 191° |
| 2026-04-26 10:26 | 55.98545 | 23.33536 | 33910 ft | 495 kts | 190° |
| 2026-04-26 10:26 | 55.91731 | 23.31917 | 33921 ft | 496 kts | 191° |
| 2026-04-26 10:27 | 55.84922 | 23.30305 | 33923 ft | 496 kts | 191° |
| 2026-04-26 10:27 | 55.78098 | 23.28691 | 33921 ft | 497 kts | 191° |
| 2026-04-26 10:28 | 55.71275 | 23.27080 | 33920 ft | 497 kts | 191° |
| 2026-04-26 10:28 | 55.64443 | 23.25473 | 33922 ft | 497 kts | 191° |
| 2026-04-26 10:29 | 55.57634 | 23.23879 | 33923 ft | 497 kts | 191° |
| 2026-04-26 10:29 | 55.50810 | 23.22291 | 33925 ft | 498 kts | 191° |
| 2026-04-26 10:30 | 55.43933 | 23.20696 | 33928 ft | 498 kts | 191° |
| 2026-04-26 10:30 | 55.37044 | 23.19104 | 33931 ft | 498 kts | 191° |
| 2026-04-26 10:31 | 55.30182 | 23.17522 | 33934 ft | 498 kts | 191° |
| 2026-04-26 10:31 | 55.23313 | 23.15944 | 33935 ft | 499 kts | 191° |
| 2026-04-26 10:32 | 55.16413 | 23.14363 | 33936 ft | 500 kts | 191° |
| 2026-04-26 10:32 | 55.09528 | 23.12793 | 33936 ft | 500 kts | 192° |
| 2026-04-26 10:33 | 55.02618 | 23.11222 | 33935 ft | 500 kts | 192° |
| 2026-04-26 10:33 | 54.95746 | 23.09665 | 33932 ft | 500 kts | 192° |
| 2026-04-26 10:34 | 54.88871 | 23.08112 | 33926 ft | 501 kts | 192° |
| 2026-04-26 10:34 | 54.81978 | 23.06562 | 33924 ft | 501 kts | 192° |
| 2026-04-26 10:35 | 54.75088 | 23.05018 | 33923 ft | 501 kts | 192° |
| 2026-04-26 10:35 | 54.68154 | 23.03466 | 33922 ft | 501 kts | 192° |
| 2026-04-26 10:36 | 54.61218 | 23.01919 | 33921 ft | 502 kts | 192° |
| 2026-04-26 10:36 | 54.54321 | 23.00389 | 33922 ft | 502 kts | 192° |
| 2026-04-26 10:37 | 54.47364 | 22.98849 | 33923 ft | 502 kts | 192° |
| 2026-04-26 10:37 | 54.40470 | 22.97328 | 33925 ft | 502 kts | 192° |
| 2026-04-26 10:38 | 54.33520 | 22.95799 | 33927 ft | 503 kts | 193° |
| 2026-04-26 10:38 | 54.26611 | 22.94287 | 33930 ft | 503 kts | 193° |
| 2026-04-26 10:39 | 54.19638 | 22.92768 | 33933 ft | 504 kts | 193° |
| 2026-04-26 10:39 | 54.12741 | 22.91005 | 33941 ft | 500 kts | 198° |
| 2026-04-26 10:40 | 54.06163 | 22.87796 | 33952 ft | 492 kts | 207° |
| 2026-04-26 10:40 | 53.99969 | 22.82987 | 33963 ft | 484 kts | 217° |
| 2026-04-26 10:41 | 53.94252 | 22.77217 | 33973 ft | 482 kts | 219° |
| 2026-04-26 10:41 | 53.88499 | 22.71394 | 33994 ft | 485 kts | 217° |
| 2026-04-26 10:42 | 53.85365 | 22.69089 | 33999 ft | 498 kts | 206° |
| 2026-04-26 10:42 | 53.81931 | 22.67688 | 34004 ft | 513 kts | 195° |
| 2026-04-26 10:42 | 53.74802 | 22.66461 | 33995 ft | 524 kts | 191° |
| 2026-04-26 10:43 | 53.67480 | 22.65397 | 33992 ft | 530 kts | 191° |
| 2026-04-26 10:43 | 53.60195 | 22.64265 | 33989 ft | 530 kts | 192° |
| 2026-04-26 10:44 | 53.52844 | 22.63080 | 33990 ft | 530 kts | 192° |
| 2026-04-26 10:44 | 53.45524 | 22.61889 | 33995 ft | 530 kts | 192° |
| 2026-04-26 10:45 | 53.38191 | 22.60696 | 34002 ft | 529 kts | 192° |
| 2026-04-26 10:45 | 53.30886 | 22.59511 | 34008 ft | 529 kts | 192° |
| 2026-04-26 10:46 | 53.23557 | 22.58326 | 34011 ft | 530 kts | 192° |
| 2026-04-26 10:46 | 53.16278 | 22.57153 | 34018 ft | 530 kts | 192° |
| 2026-04-26 10:47 | 53.08937 | 22.55974 | 34026 ft | 530 kts | 192° |
| 2026-04-26 10:47 | 53.01619 | 22.54805 | 34032 ft | 530 kts | 192° |
| 2026-04-26 10:48 | 52.94313 | 22.53641 | 34035 ft | 529 kts | 192° |
| 2026-04-26 10:48 | 52.87000 | 22.52479 | 34035 ft | 529 kts | 192° |
| 2026-04-26 10:49 | 52.79688 | 22.51320 | 34039 ft | 530 kts | 192° |
| 2026-04-26 10:49 | 52.72368 | 22.50165 | 34041 ft | 530 kts | 192° |
| 2026-04-26 10:50 | 52.65024 | 22.49010 | 34043 ft | 530 kts | 192° |
| 2026-04-26 10:50 | 52.57711 | 22.47865 | 34055 ft | 531 kts | 193° |
| 2026-04-26 10:51 | 52.46671 | 22.46144 | 34404 ft | 529 kts | 193° |
| 2026-04-26 10:51 | 52.43001 | 22.45573 | 34516 ft | 529 kts | 193° |
| 2026-04-26 10:52 | 52.39382 | 22.45010 | 34619 ft | 530 kts | 193° |
| 2026-04-26 10:52 | 52.35693 | 22.44438 | 34727 ft | 530 kts | 193° |
| 2026-04-26 10:52 | 52.32027 | 22.43870 | 34844 ft | 530 kts | 193° |
| 2026-04-26 10:52 | 52.28392 | 22.43308 | 34971 ft | 529 kts | 193° |
| 2026-04-26 10:53 | 52.24716 | 22.42741 | 35075 ft | 529 kts | 193° |
| 2026-04-26 10:53 | 52.17431 | 22.41620 | 35098 ft | 527 kts | 193° |
| 2026-04-26 10:54 | 52.06513 | 22.39945 | 35104 ft | 526 kts | 193° |
| 2026-04-26 10:54 | 51.99217 | 22.38826 | 35088 ft | 526 kts | 193° |
| 2026-04-26 10:55 | 51.91941 | 22.37716 | 35075 ft | 527 kts | 193° |
| 2026-04-26 10:55 | 51.84656 | 22.36612 | 35075 ft | 527 kts | 193° |
| 2026-04-26 10:56 | 51.77401 | 22.35517 | 35076 ft | 527 kts | 193° |
| 2026-04-26 10:56 | 51.70095 | 22.34413 | 35068 ft | 527 kts | 192° |
| 2026-04-26 10:57 | 51.62796 | 22.33315 | 35067 ft | 528 kts | 192° |
| 2026-04-26 10:57 | 51.55532 | 22.32228 | 35069 ft | 527 kts | 192° |
| 2026-04-26 10:58 | 51.48256 | 22.31145 | 35071 ft | 528 kts | 192° |
| 2026-04-26 10:58 | 51.40960 | 22.30066 | 35074 ft | 527 kts | 192° |
| 2026-04-26 10:59 | 51.33689 | 22.28993 | 35076 ft | 526 kts | 192° |
| 2026-04-26 10:59 | 51.26405 | 22.27918 | 35080 ft | 525 kts | 192° |
| 2026-04-26 11:00 | 51.19114 | 22.26845 | 35083 ft | 524 kts | 192° |
| 2026-04-26 11:00 | 51.11864 | 22.25781 | 35088 ft | 524 kts | 192° |
| 2026-04-26 11:01 | 51.04597 | 22.24718 | 35092 ft | 523 kts | 193° |
| 2026-04-26 11:01 | 50.97381 | 22.23666 | 35096 ft | 522 kts | 193° |
| 2026-04-26 11:02 | 50.90159 | 22.22615 | 35103 ft | 522 kts | 193° |
| 2026-04-26 11:02 | 50.82904 | 22.21562 | 35109 ft | 522 kts | 193° |
| 2026-04-26 11:03 | 50.75652 | 22.20512 | 35114 ft | 522 kts | 193° |
| 2026-04-26 11:03 | 50.68439 | 22.19473 | 35118 ft | 521 kts | 193° |
| 2026-04-26 11:04 | 50.61211 | 22.18436 | 35121 ft | 520 kts | 193° |
| 2026-04-26 11:04 | 50.54048 | 22.17412 | 35123 ft | 520 kts | 193° |
| 2026-04-26 11:05 | 50.46845 | 22.16388 | 35125 ft | 521 kts | 193° |
| 2026-04-26 11:05 | 50.39612 | 22.15361 | 35124 ft | 520 kts | 193° |
| 2026-04-26 11:06 | 50.32420 | 22.14342 | 35124 ft | 520 kts | 193° |
| 2026-04-26 11:06 | 50.25212 | 22.13322 | 35121 ft | 520 kts | 193° |
| 2026-04-26 11:07 | 50.18068 | 22.12313 | 35119 ft | 520 kts | 193° |
| 2026-04-26 11:07 | 50.10815 | 22.11292 | 35115 ft | 521 kts | 194° |
| 2026-04-26 11:08 | 50.03635 | 22.10285 | 35113 ft | 521 kts | 194° |
| 2026-04-26 11:08 | 49.96399 | 22.09271 | 35108 ft | 521 kts | 193° |
| 2026-04-26 11:09 | 49.89197 | 22.08266 | 35104 ft | 522 kts | 193° |
| 2026-04-26 11:09 | 49.81939 | 22.07259 | 35100 ft | 522 kts | 193° |
| 2026-04-26 11:10 | 49.74734 | 22.06261 | 35098 ft | 522 kts | 193° |
| 2026-04-26 11:10 | 49.67481 | 22.05260 | 35096 ft | 522 kts | 193° |
| 2026-04-26 11:11 | 49.60246 | 22.04264 | 35095 ft | 522 kts | 193° |
| 2026-04-26 11:11 | 49.53022 | 22.03272 | 35096 ft | 521 kts | 193° |
| 2026-04-26 11:12 | 49.45804 | 22.02285 | 35096 ft | 520 kts | 193° |
| 2026-04-26 11:12 | 49.38614 | 22.01302 | 35093 ft | 520 kts | 193° |
| 2026-04-26 11:13 | 49.31397 | 22.00319 | 35061 ft | 519 kts | 193° |
| 2026-04-26 11:13 | 49.24210 | 21.99344 | 35015 ft | 518 kts | 193° |
| 2026-04-26 11:14 | 49.17018 | 21.98372 | 35058 ft | 517 kts | 193° |
| 2026-04-26 11:14 | 49.09884 | 21.97409 | 35106 ft | 516 kts | 193° |
| 2026-04-26 11:15 | 49.02723 | 21.96445 | 35116 ft | 514 kts | 193° |
| 2026-04-26 11:15 | 48.95608 | 21.95490 | 35114 ft | 513 kts | 193° |
| 2026-04-26 11:16 | 48.88486 | 21.94537 | 35109 ft | 512 kts | 193° |
| 2026-04-26 11:16 | 48.81429 | 21.93597 | 35109 ft | 511 kts | 193° |
| 2026-04-26 11:17 | 48.74346 | 21.92656 | 35109 ft | 509 kts | 193° |
| 2026-04-26 11:17 | 48.67289 | 21.91720 | 35109 ft | 508 kts | 193° |
| 2026-04-26 11:18 | 48.60228 | 21.90787 | 35108 ft | 507 kts | 192° |
| 2026-04-26 11:18 | 48.53221 | 21.89862 | 35105 ft | 506 kts | 192° |
| 2026-04-26 11:19 | 48.46177 | 21.88935 | 35101 ft | 506 kts | 192° |
| 2026-04-26 11:19 | 48.39209 | 21.88021 | 35096 ft | 505 kts | 192° |
| 2026-04-26 11:20 | 48.32215 | 21.87107 | 35093 ft | 505 kts | 192° |
| 2026-04-26 11:20 | 48.25196 | 21.86192 | 35090 ft | 504 kts | 192° |
| 2026-04-26 11:21 | 48.18219 | 21.85286 | 35086 ft | 503 kts | 192° |
| 2026-04-26 11:21 | 48.11245 | 21.84380 | 35083 ft | 503 kts | 192° |
| 2026-04-26 11:22 | 48.04332 | 21.83486 | 35080 ft | 503 kts | 192° |
| 2026-04-26 11:22 | 47.97372 | 21.82588 | 35078 ft | 503 kts | 192° |
| 2026-04-26 11:23 | 47.90412 | 21.81694 | 35077 ft | 503 kts | 192° |
| 2026-04-26 11:23 | 47.83462 | 21.80802 | 35076 ft | 502 kts | 192° |
| 2026-04-26 11:24 | 47.76475 | 21.79908 | 35076 ft | 503 kts | 192° |
| 2026-04-26 11:24 | 47.69531 | 21.79021 | 35075 ft | 502 kts | 192° |
| 2026-04-26 11:25 | 47.62613 | 21.78139 | 35075 ft | 502 kts | 192° |
| 2026-04-26 11:25 | 47.55603 | 21.77253 | 35074 ft | 502 kts | 192° |
| 2026-04-26 11:26 | 47.48632 | 21.76372 | 35073 ft | 501 kts | 192° |
| 2026-04-26 11:26 | 47.41750 | 21.75501 | 35073 ft | 500 kts | 192° |
| 2026-04-26 11:27 | 47.34817 | 21.74628 | 35073 ft | 500 kts | 191° |
| 2026-04-26 11:27 | 47.27870 | 21.73755 | 35072 ft | 498 kts | 191° |
| 2026-04-26 11:28 | 47.20943 | 21.73492 | 35071 ft | 504 kts | 183° |
| 2026-04-26 11:28 | 47.13971 | 21.74646 | 35071 ft | 509 kts | 174° |
| 2026-04-26 11:29 | 47.07095 | 21.77258 | 35071 ft | 512 kts | 165° |
| 2026-04-26 11:29 | 47.00319 | 21.80589 | 35071 ft | 511 kts | 165° |
| 2026-04-26 11:30 | 46.93540 | 21.83908 | 35071 ft | 509 kts | 165° |
| 2026-04-26 11:30 | 46.86797 | 21.87170 | 35069 ft | 507 kts | 165° |
| 2026-04-26 11:31 | 46.80123 | 21.90378 | 35069 ft | 506 kts | 165° |
| 2026-04-26 11:31 | 46.73457 | 21.93570 | 35068 ft | 504 kts | 165° |
| 2026-04-26 11:32 | 46.66819 | 21.96740 | 35067 ft | 503 kts | 164° |
| 2026-04-26 11:32 | 46.60198 | 21.99894 | 35064 ft | 501 kts | 164° |
| 2026-04-26 11:33 | 46.53598 | 22.03030 | 35064 ft | 500 kts | 164° |
| 2026-04-26 11:33 | 46.47006 | 22.06155 | 35067 ft | 499 kts | 164° |
| 2026-04-26 11:34 | 46.40425 | 22.09267 | 35069 ft | 498 kts | 164° |
| 2026-04-26 11:34 | 46.33870 | 22.12357 | 35069 ft | 497 kts | 164° |
| 2026-04-26 11:35 | 46.27294 | 22.15450 | 35066 ft | 496 kts | 164° |
| 2026-04-26 11:35 | 46.20786 | 22.18503 | 35061 ft | 495 kts | 164° |
| 2026-04-26 11:36 | 46.14234 | 22.21569 | 35056 ft | 494 kts | 163° |
| 2026-04-26 11:36 | 46.07683 | 22.24628 | 35044 ft | 494 kts | 163° |
| 2026-04-26 11:37 | 46.01163 | 22.27665 | 35030 ft | 493 kts | 163° |
| 2026-04-26 11:37 | 45.94636 | 22.30697 | 35027 ft | 493 kts | 163° |
| 2026-04-26 11:38 | 45.88120 | 22.33716 | 35033 ft | 493 kts | 163° |
| 2026-04-26 11:38 | 45.81592 | 22.36733 | 35048 ft | 493 kts | 163° |
| 2026-04-26 11:39 | 45.75068 | 22.39741 | 34944 ft | 493 kts | 163° |
| 2026-04-26 11:39 | 45.68560 | 22.42734 | 34813 ft | 493 kts | 163° |
| 2026-04-26 11:40 | 45.62051 | 22.45721 | 34803 ft | 493 kts | 163° |
| 2026-04-26 11:40 | 45.55565 | 22.48689 | 34846 ft | 493 kts | 163° |
| 2026-04-26 11:42 | 45.29451 | 22.60570 | 34105 ft | 492 kts | 163° |
| 2026-04-26 11:43 | 45.26219 | 22.62032 | 33982 ft | 492 kts | 163° |
| 2026-04-26 11:43 | 45.22946 | 22.63510 | 33854 ft | 493 kts | 163° |
| 2026-04-26 11:43 | 45.16422 | 22.66454 | 33829 ft | 493 kts | 165° |
| 2026-04-26 11:44 | 45.09920 | 22.69380 | 34031 ft | 492 kts | 165° |
| 2026-04-26 11:44 | 45.06669 | 22.70841 | 34286 ft | 488 kts | 165° |
| 2026-04-26 11:44 | 45.03439 | 22.72291 | 34548 ft | 485 kts | 165° |
| 2026-04-26 11:45 | 45.00259 | 22.73716 | 34769 ft | 484 kts | 165° |
| 2026-04-26 11:45 | 44.97039 | 22.75157 | 34951 ft | 484 kts | 165° |
| 2026-04-26 11:45 | 44.90573 | 22.78045 | 35096 ft | 489 kts | 165° |
| 2026-04-26 11:46 | 44.84098 | 22.80932 | 35071 ft | 488 kts | 165° |
| 2026-04-26 11:46 | 44.77622 | 22.83812 | 35012 ft | 488 kts | 165° |
| 2026-04-26 11:47 | 44.71165 | 22.86676 | 34986 ft | 487 kts | 165° |
| 2026-04-26 11:47 | 44.64721 | 22.89529 | 34972 ft | 487 kts | 165° |
| 2026-04-26 11:48 | 44.58266 | 22.92377 | 34972 ft | 487 kts | 165° |
| 2026-04-26 11:48 | 44.51804 | 22.95223 | 34979 ft | 487 kts | 165° |
| 2026-04-26 11:49 | 44.45350 | 22.98059 | 34982 ft | 486 kts | 165° |
| 2026-04-26 11:49 | 44.38904 | 23.00886 | 34980 ft | 486 kts | 165° |
| 2026-04-26 11:50 | 44.32489 | 23.03693 | 34974 ft | 485 kts | 165° |
| 2026-04-26 11:50 | 44.26044 | 23.06507 | 34968 ft | 485 kts | 165° |
| 2026-04-26 11:51 | 44.19643 | 23.09295 | 34965 ft | 484 kts | 165° |
| 2026-04-26 11:51 | 44.13210 | 23.12091 | 34964 ft | 484 kts | 165° |
| 2026-04-26 11:52 | 44.06800 | 23.14870 | 34965 ft | 483 kts | 165° |
| 2026-04-26 11:52 | 44.00401 | 23.17639 | 34964 ft | 483 kts | 166° |
| 2026-04-26 11:53 | 43.93966 | 23.20421 | 34960 ft | 483 kts | 165° |
| 2026-04-26 11:54 | 43.84363 | 23.24433 | 34959 ft | 480 kts | 167° |
| 2026-04-26 11:54 | 43.77937 | 23.26954 | 34971 ft | 479 kts | 167° |
| 2026-04-26 11:55 | 43.71555 | 23.29462 | 34978 ft | 479 kts | 167° |
| 2026-04-26 11:55 | 43.65153 | 23.31985 | 34982 ft | 479 kts | 167° |
| 2026-04-26 11:56 | 43.58739 | 23.34511 | 34985 ft | 479 kts | 167° |
| 2026-04-26 11:56 | 43.52360 | 23.37018 | 34988 ft | 479 kts | 167° |
| 2026-04-26 11:57 | 43.45976 | 23.39522 | 34992 ft | 479 kts | 167° |
| 2026-04-26 11:57 | 43.39557 | 23.42036 | 34987 ft | 479 kts | 167° |
| 2026-04-26 11:58 | 43.33163 | 23.44535 | 34969 ft | 479 kts | 167° |
| 2026-04-26 11:58 | 43.26741 | 23.47034 | 34953 ft | 479 kts | 167° |
| 2026-04-26 11:59 | 43.20375 | 23.49508 | 34957 ft | 479 kts | 167° |
| 2026-04-26 11:59 | 43.13945 | 23.52004 | 34982 ft | 480 kts | 167° |
| 2026-04-26 12:00 | 43.07525 | 23.54490 | 35012 ft | 480 kts | 167° |
| 2026-04-26 12:00 | 43.01115 | 23.56967 | 35045 ft | 480 kts | 167° |
| 2026-04-26 12:01 | 42.94709 | 23.59437 | 35057 ft | 480 kts | 167° |
| 2026-04-26 12:01 | 42.88245 | 23.61925 | 35046 ft | 480 kts | 167° |
| 2026-04-26 12:02 | 42.81844 | 23.64382 | 35037 ft | 480 kts | 167° |
| 2026-04-26 12:02 | 42.75375 | 23.66861 | 35028 ft | 480 kts | 168° |
| 2026-04-26 12:03 | 42.68935 | 23.69324 | 35030 ft | 481 kts | 168° |
| 2026-04-26 12:03 | 42.62494 | 23.71781 | 35037 ft | 481 kts | 168° |
| 2026-04-26 12:04 | 42.56052 | 23.74233 | 35041 ft | 481 kts | 168° |
| 2026-04-26 12:04 | 42.49624 | 23.76675 | 35042 ft | 481 kts | 168° |
| 2026-04-26 12:05 | 42.43160 | 23.79126 | 35051 ft | 482 kts | 168° |
| 2026-04-26 12:05 | 42.36729 | 23.81557 | 35068 ft | 482 kts | 168° |
| 2026-04-26 12:06 | 42.30294 | 23.83986 | 35080 ft | 482 kts | 167° |
| 2026-04-26 12:06 | 42.23846 | 23.86415 | 35078 ft | 482 kts | 167° |
| 2026-04-26 12:07 | 42.17409 | 23.88835 | 35081 ft | 482 kts | 167° |
| 2026-04-26 12:07 | 42.10983 | 23.91249 | 35073 ft | 482 kts | 168° |
| 2026-04-26 12:08 | 42.04525 | 23.93669 | 35068 ft | 483 kts | 168° |
| 2026-04-26 12:08 | 41.98040 | 23.96088 | 34930 ft | 484 kts | 168° |
| 2026-04-26 12:08 | 41.94789 | 23.97297 | 34636 ft | 485 kts | 168° |
| 2026-04-26 12:09 | 41.91533 | 23.98509 | 34356 ft | 485 kts | 168° |
| 2026-04-26 12:09 | 41.88278 | 23.99720 | 34043 ft | 484 kts | 168° |
| 2026-04-26 12:09 | 41.85033 | 24.00925 | 33974 ft | 485 kts | 168° |
| 2026-04-26 12:10 | 41.78558 | 24.03328 | 33899 ft | 485 kts | 168° |
| 2026-04-26 12:10 | 41.72060 | 24.05734 | 33897 ft | 486 kts | 168° |
| 2026-04-26 12:11 | 41.65549 | 24.08142 | 33936 ft | 486 kts | 168° |
| 2026-04-26 12:11 | 41.59029 | 24.10546 | 34017 ft | 486 kts | 168° |
| 2026-04-26 12:12 | 41.52578 | 24.13349 | 34059 ft | 489 kts | 162° |
| 2026-04-26 12:12 | 41.46294 | 24.16882 | 34069 ft | 490 kts | 160° |
| 2026-04-26 12:13 | 41.40037 | 24.20453 | 34089 ft | 490 kts | 160° |
| 2026-04-26 12:13 | 41.33779 | 24.24012 | 34172 ft | 489 kts | 160° |
| 2026-04-26 12:13 | 41.30653 | 24.25785 | 34293 ft | 489 kts | 160° |
| 2026-04-26 12:14 | 41.27563 | 24.27535 | 34469 ft | 487 kts | 160° |
| 2026-04-26 12:14 | 41.24452 | 24.29295 | 34687 ft | 485 kts | 160° |
| 2026-04-26 12:14 | 41.21335 | 24.31055 | 34865 ft | 486 kts | 159° |
| 2026-04-26 12:14 | 41.18210 | 24.32819 | 34978 ft | 487 kts | 159° |
| 2026-04-26 12:15 | 41.15081 | 24.34584 | 35030 ft | 489 kts | 159° |
| 2026-04-26 12:15 | 41.08810 | 24.38115 | 35053 ft | 488 kts | 159° |
| 2026-04-26 12:16 | 41.02557 | 24.41628 | 35054 ft | 488 kts | 159° |
| 2026-04-26 12:16 | 40.96335 | 24.45116 | 35005 ft | 487 kts | 159° |
| 2026-04-26 12:17 | 40.90092 | 24.48607 | 34991 ft | 488 kts | 159° |
| 2026-04-26 12:17 | 40.83815 | 24.52114 | 34992 ft | 488 kts | 159° |
| 2026-04-26 12:18 | 40.77600 | 24.55579 | 34992 ft | 488 kts | 158° |
| 2026-04-26 12:18 | 40.71337 | 24.59062 | 34995 ft | 488 kts | 158° |
| 2026-04-26 12:19 | 40.65071 | 24.62539 | 34996 ft | 488 kts | 158° |
| 2026-04-26 12:19 | 40.58815 | 24.66003 | 34994 ft | 487 kts | 159° |
| 2026-04-26 12:20 | 40.52582 | 24.69448 | 34994 ft | 487 kts | 159° |
| 2026-04-26 12:20 | 40.46336 | 24.72892 | 34994 ft | 487 kts | 159° |
| 2026-04-26 12:21 | 40.40088 | 24.76330 | 34995 ft | 487 kts | 159° |
| 2026-04-26 12:21 | 40.33868 | 24.79746 | 34995 ft | 488 kts | 159° |
| 2026-04-26 12:22 | 40.27617 | 24.83171 | 34996 ft | 488 kts | 159° |
| 2026-04-26 12:22 | 40.21355 | 24.86599 | 34996 ft | 488 kts | 158° |
| 2026-04-26 12:23 | 40.15085 | 24.90025 | 34996 ft | 487 kts | 158° |
| 2026-04-26 12:23 | 40.08848 | 24.93424 | 34996 ft | 487 kts | 158° |
| 2026-04-26 12:24 | 40.02583 | 24.96831 | 34998 ft | 487 kts | 158° |
| 2026-04-26 12:24 | 39.96335 | 25.00221 | 34999 ft | 487 kts | 158° |
| 2026-04-26 12:25 | 39.86974 | 25.05286 | 34994 ft | 487 kts | 158° |
| 2026-04-26 12:25 | 39.80709 | 25.08664 | 34991 ft | 487 kts | 158° |
| 2026-04-26 12:26 | 39.74475 | 25.12023 | 34992 ft | 487 kts | 157° |
| 2026-04-26 12:26 | 39.68203 | 25.15403 | 34994 ft | 487 kts | 157° |
| 2026-04-26 12:27 | 39.61968 | 25.18753 | 34995 ft | 487 kts | 157° |
| 2026-04-26 12:27 | 39.55699 | 25.22113 | 34995 ft | 487 kts | 157° |
| 2026-04-26 12:28 | 39.49482 | 25.25437 | 34995 ft | 487 kts | 157° |
| 2026-04-26 12:28 | 39.43204 | 25.28787 | 34997 ft | 487 kts | 157° |
| 2026-04-26 12:29 | 39.36949 | 25.32116 | 34999 ft | 487 kts | 157° |
| 2026-04-26 12:30 | 39.27556 | 25.37101 | 35001 ft | 487 kts | 157° |
| 2026-04-26 12:30 | 39.21318 | 25.40405 | 35001 ft | 487 kts | 157° |
| 2026-04-26 12:31 | 39.11936 | 25.45364 | 35000 ft | 487 kts | 156° |
| 2026-04-26 12:31 | 39.05671 | 25.48669 | 35000 ft | 487 kts | 156° |
| 2026-04-26 12:32 | 38.99412 | 25.51963 | 34999 ft | 486 kts | 156° |
| 2026-04-26 12:33 | 38.90011 | 25.56900 | 34996 ft | 487 kts | 156° |
| 2026-04-26 12:33 | 38.83739 | 25.60185 | 34993 ft | 487 kts | 156° |
| 2026-04-26 12:34 | 38.77497 | 25.63450 | 34993 ft | 487 kts | 156° |
| 2026-04-26 12:34 | 38.71206 | 25.66733 | 34994 ft | 487 kts | 156° |
| 2026-04-26 12:35 | 38.64964 | 25.69984 | 34994 ft | 487 kts | 156° |
| 2026-04-26 12:35 | 38.58664 | 25.73260 | 34994 ft | 487 kts | 156° |
| 2026-04-26 12:36 | 38.52381 | 25.76521 | 34995 ft | 488 kts | 156° |
| 2026-04-26 12:36 | 38.46101 | 25.79774 | 35000 ft | 488 kts | 156° |
| 2026-04-26 12:37 | 38.39830 | 25.83016 | 35003 ft | 488 kts | 155° |
| 2026-04-26 12:37 | 38.33522 | 25.86276 | 35005 ft | 488 kts | 155° |
| 2026-04-26 12:38 | 38.27255 | 25.89506 | 35003 ft | 487 kts | 155° |
| 2026-04-26 12:38 | 38.20871 | 25.92549 | 35000 ft | 488 kts | 158° |
| 2026-04-26 12:39 | 38.14452 | 25.95478 | 34998 ft | 488 kts | 158° |
| 2026-04-26 12:39 | 38.08016 | 25.98407 | 34995 ft | 488 kts | 158° |
| 2026-04-26 12:40 | 38.01629 | 26.01311 | 34994 ft | 488 kts | 157° |
| 2026-04-26 12:40 | 37.95202 | 26.04228 | 34992 ft | 488 kts | 157° |
| 2026-04-26 12:41 | 37.88834 | 26.07113 | 34988 ft | 488 kts | 157° |
| 2026-04-26 12:41 | 37.82391 | 26.10026 | 34986 ft | 488 kts | 157° |
| 2026-04-26 12:42 | 37.76002 | 26.12909 | 34984 ft | 488 kts | 157° |
| 2026-04-26 12:42 | 37.69611 | 26.15789 | 34978 ft | 488 kts | 157° |
| 2026-04-26 12:43 | 37.63256 | 26.18646 | 34973 ft | 488 kts | 157° |
| 2026-04-26 12:43 | 37.56823 | 26.21532 | 34966 ft | 488 kts | 157° |
| 2026-04-26 12:44 | 37.50439 | 26.24391 | 34963 ft | 488 kts | 157° |
| 2026-04-26 12:44 | 37.44031 | 26.27256 | 34959 ft | 488 kts | 157° |
| 2026-04-26 12:45 | 37.37648 | 26.30104 | 34956 ft | 487 kts | 157° |
| 2026-04-26 12:45 | 37.31249 | 26.32954 | 34954 ft | 487 kts | 157° |
| 2026-04-26 12:46 | 37.24873 | 26.35788 | 34953 ft | 487 kts | 157° |
| 2026-04-26 12:46 | 37.18463 | 26.38636 | 34941 ft | 487 kts | 157° |
| 2026-04-26 12:47 | 37.12107 | 26.41457 | 34919 ft | 486 kts | 157° |
| 2026-04-26 12:47 | 37.05716 | 26.44286 | 34904 ft | 486 kts | 157° |
| 2026-04-26 12:48 | 36.99289 | 26.47123 | 34899 ft | 486 kts | 157° |
| 2026-04-26 12:48 | 36.93190 | 26.50604 | 34854 ft | 478 kts | 143° |
| 2026-04-26 12:48 | 36.90589 | 26.53065 | 34640 ft | 462 kts | 134° |
| 2026-04-26 12:49 | 36.88394 | 26.55881 | 34427 ft | 449 kts | 125° |
| 2026-04-26 12:49 | 36.86566 | 26.59034 | 34196 ft | 441 kts | 117° |
| 2026-04-26 12:49 | 36.85150 | 26.62370 | 33879 ft | 435 kts | 109° |
| 2026-04-26 12:49 | 36.83969 | 26.65812 | 33422 ft | 433 kts | 108° |
| 2026-04-26 12:50 | 36.82815 | 26.69316 | 32835 ft | 434 kts | 108° |
| 2026-04-26 12:50 | 36.81670 | 26.72728 | 32178 ft | 432 kts | 108° |
| 2026-04-26 12:50 | 36.80499 | 26.76165 | 31388 ft | 430 kts | 109° |
| 2026-04-26 12:50 | 36.79325 | 26.79586 | 30463 ft | 431 kts | 109° |
| 2026-04-26 12:51 | 36.78153 | 26.82993 | 29547 ft | 433 kts | 109° |
| 2026-04-26 12:51 | 36.76972 | 26.86417 | 28552 ft | 432 kts | 109° |
| 2026-04-26 12:51 | 36.75799 | 26.89806 | 27783 ft | 424 kts | 109° |
| 2026-04-26 12:51 | 36.74633 | 26.93166 | 27022 ft | 416 kts | 109° |
| 2026-04-26 12:52 | 36.73497 | 26.96442 | 26218 ft | 410 kts | 109° |
| 2026-04-26 12:52 | 36.72362 | 26.99717 | 25349 ft | 405 kts | 109° |
| 2026-04-26 12:52 | 36.71271 | 27.02865 | 24482 ft | 399 kts | 109° |
| 2026-04-26 12:52 | 36.70170 | 27.06037 | 23612 ft | 394 kts | 109° |
| 2026-04-26 12:53 | 36.69087 | 27.09151 | 22740 ft | 388 kts | 109° |
| 2026-04-26 12:53 | 36.68025 | 27.12196 | 21838 ft | 383 kts | 109° |
| 2026-04-26 12:53 | 36.66980 | 27.15191 | 20891 ft | 376 kts | 110° |
| 2026-04-26 12:53 | 36.65958 | 27.18112 | 19902 ft | 371 kts | 110° |
| 2026-04-26 12:54 | 36.64943 | 27.21013 | 18919 ft | 366 kts | 110° |
| 2026-04-26 12:54 | 36.63940 | 27.23878 | 17950 ft | 360 kts | 110° |
| 2026-04-26 12:54 | 36.62954 | 27.26688 | 16951 ft | 355 kts | 110° |
| 2026-04-26 12:54 | 36.61970 | 27.29492 | 16001 ft | 349 kts | 110° |
| 2026-04-26 12:55 | 36.61010 | 27.32223 | 15059 ft | 345 kts | 110° |
| 2026-04-26 12:55 | 36.60059 | 27.34930 | 14198 ft | 340 kts | 110° |
| 2026-04-26 12:55 | 36.59128 | 27.37573 | 13310 ft | 335 kts | 110° |
| 2026-04-26 12:55 | 36.58217 | 27.40161 | 12493 ft | 328 kts | 110° |
| 2026-04-26 12:56 | 36.57309 | 27.42748 | 11558 ft | 325 kts | 110° |
| 2026-04-26 12:56 | 36.56419 | 27.45280 | 10667 ft | 321 kts | 111° |
| 2026-04-26 12:56 | 36.55542 | 27.47768 | 9958 ft | 310 kts | 111° |
| 2026-04-26 12:56 | 36.54694 | 27.50163 | 9504 ft | 295 kts | 111° |
| 2026-04-26 12:57 | 36.53869 | 27.52499 | 9286 ft | 285 kts | 111° |
| 2026-04-26 12:57 | 36.53077 | 27.54736 | 9092 ft | 275 kts | 111° |
| 2026-04-26 12:57 | 36.52311 | 27.56897 | 8830 ft | 270 kts | 111° |
| 2026-04-26 12:58 | 36.50791 | 27.61186 | 8065 ft | 270 kts | 111° |
| 2026-04-26 12:58 | 36.50044 | 27.63290 | 7708 ft | 269 kts | 111° |
| 2026-04-26 12:58 | 36.49287 | 27.65411 | 7366 ft | 267 kts | 111° |
| 2026-04-26 12:58 | 36.48537 | 27.67516 | 7012 ft | 265 kts | 111° |
| 2026-04-26 12:59 | 36.47791 | 27.69607 | 6917 ft | 265 kts | 111° |
| 2026-04-26 12:59 | 36.47116 | 27.71730 | 6912 ft | 265 kts | 107° |
| 2026-04-26 12:59 | 36.46567 | 27.73910 | 6911 ft | 264 kts | 103° |
| 2026-04-26 12:59 | 36.46149 | 27.76135 | 6910 ft | 263 kts | 99° |
| 2026-04-26 13:00 | 36.45837 | 27.78370 | 6910 ft | 264 kts | 98° |
| 2026-04-26 13:00 | 36.45534 | 27.80644 | 6912 ft | 264 kts | 98° |
| 2026-04-26 13:00 | 36.45242 | 27.82860 | 6849 ft | 259 kts | 97° |
| 2026-04-26 13:00 | 36.44955 | 27.85072 | 6390 ft | 259 kts | 97° |
| 2026-04-26 13:01 | 36.44683 | 27.87305 | 5886 ft | 258 kts | 96° |
| 2026-04-26 13:01 | 36.44458 | 27.89501 | 5442 ft | 256 kts | 96° |
| 2026-04-26 13:01 | 36.44243 | 27.91678 | 4995 ft | 254 kts | 95° |
| 2026-04-26 13:01 | 36.44032 | 27.93848 | 4548 ft | 252 kts | 95° |
| 2026-04-26 13:02 | 36.43988 | 27.96003 | 4085 ft | 249 kts | 86° |
| 2026-04-26 13:02 | 36.44095 | 27.98122 | 3642 ft | 247 kts | 85° |
| 2026-04-26 13:02 | 36.44262 | 28.00226 | 3194 ft | 247 kts | 79° |
| 2026-04-26 13:02 | 36.44645 | 28.02282 | 3003 ft | 240 kts | 73° |
| 2026-04-26 13:03 | 36.45185 | 28.04183 | 3000 ft | 229 kts | 69° |
| 2026-04-26 13:03 | 36.45753 | 28.06002 | 2913 ft | 223 kts | 68° |
| 2026-04-26 13:03 | 36.46321 | 28.07803 | 2797 ft | 222 kts | 68° |
| 2026-04-26 13:03 | 36.46886 | 28.09567 | 2676 ft | 216 kts | 68° |
| 2026-04-26 13:04 | 36.47437 | 28.11286 | 2554 ft | 210 kts | 68° |
| 2026-04-26 13:04 | 36.47960 | 28.12939 | 2465 ft | 201 kts | 68° |
| 2026-04-26 13:04 | 36.48447 | 28.14491 | 2399 ft | 188 kts | 68° |
| 2026-04-26 13:04 | 36.48907 | 28.15959 | 2256 ft | 178 kts | 68° |
| 2026-04-26 13:05 | 36.49346 | 28.17365 | 2117 ft | 172 kts | 68° |
| 2026-04-26 13:05 | 36.49714 | 28.18769 | 2001 ft | 172 kts | 83° |
| 2026-04-26 13:05 | 36.49321 | 28.20156 | 1981 ft | 177 kts | 135° |
| 2026-04-26 13:05 | 36.48256 | 28.20800 | 1988 ft | 165 kts | 162° |
| 2026-04-26 13:06 | 36.47169 | 28.21149 | 1976 ft | 160 kts | 164° |
| 2026-04-26 13:06 | 36.46084 | 28.21452 | 1949 ft | 159 kts | 167° |
| 2026-04-26 13:06 | 36.44985 | 28.21672 | 1884 ft | 160 kts | 182° |
| 2026-04-26 13:06 | 36.44010 | 28.21105 | 1752 ft | 159 kts | 231° |
| 2026-04-26 13:07 | 36.43637 | 28.19826 | 1712 ft | 158 kts | 261° |
| 2026-04-26 13:07 | 36.43425 | 28.18523 | 1469 ft | 153 kts | 256° |
| 2026-04-26 13:07 | 36.43067 | 28.17306 | 1174 ft | 148 kts | 249° |
| 2026-04-26 13:07 | 36.42720 | 28.16097 | 1006 ft | 148 kts | 252° |
| 2026-04-26 13:08 | 36.42384 | 28.14890 | 840 ft | 148 kts | 250° |
| 2026-04-26 13:08 | 36.42030 | 28.13709 | 628 ft | 146 kts | 251° |
| 2026-04-26 13:08 | 36.41682 | 28.12521 | 434 ft | 144 kts | 251° |
| 2026-04-26 13:08 | 36.41338 | 28.11369 | 230 ft | 142 kts | 251° |
| 2026-04-26 13:09 | 36.41003 | 28.10225 | 55 ft | 140 kts | 252° |
| 2026-04-26 13:09 | 36.40700 | 28.09182 | 28 ft | 107 kts | 250° |
| 2026-04-26 13:09 | 36.40501 | 28.08504 | 26 ft | 64 kts | 250° |
| 2026-04-26 13:09 | 36.40363 | 28.08063 | 23 ft | 48 kts | 237° |
| 2026-04-26 13:10 | 36.40203 | 28.07879 | 26 ft | 19 kts | 218° |
| 2026-04-26 13:10 | 36.40151 | 28.07938 | 27 ft | 16 kts | 70° |
| 2026-04-26 13:10 | 36.40191 | 28.08073 | 27 ft | 16 kts | 70° |
| 2026-04-26 13:10 | 36.40232 | 28.08211 | 26 ft | 17 kts | 70° |
| 2026-04-26 13:11 | 36.40272 | 28.08350 | 28 ft | 16 kts | 70° |
| 2026-04-26 13:11 | 36.40311 | 28.08480 | 30 ft | 15 kts | 70° |
| 2026-04-26 13:11 | 36.40347 | 28.08602 | 32 ft | 14 kts | 70° |
| 2026-04-26 13:11 | 36.40382 | 28.08719 | 33 ft | 14 kts | 70° |
| 2026-04-26 13:12 | 36.40400 | 28.08834 | 35 ft | 13 kts | 90° |
| 2026-04-26 13:12 | 36.40393 | 28.08930 | 37 ft | 7 kts | 111° |
| 2026-04-26 13:12 | 36.40357 | 28.08963 | 38 ft | 6 kts | 160° |
| 2026-04-26 13:12 | 36.40324 | 28.08977 | 39 ft | 0 kts | 160° |